Archival Weather

Fukuoka

Fukuoka, Japan (RJFF)

Report from: Tuesday, August 16, 2022 3:30 PM JST
Current time: Sunday, November 27, 2022 4:58 PM JST

Current weather
Weather history
Weather forecast

Present weatherThunderstorm with rain, thunderstorm with rain
Temperature27.0°C (80.6°F)
Heat index30.6°C (87.0°F)
Dew point25.0°C (77.0°F)
Winds 10 kts (5.1 m/s, 11.5 mph) South (180°)
Visibility5 mi. (8 km)
Clouds Few clouds 800 ft. (244 m)
Few clouds with cumulonimbus 2,000 ft. (610 m)
Scattered clouds 3,000 ft. (914 m)
Ceiling: Broken clouds 4,000 ft. (1,219 m)
Altimeter29.71 in.Hg (1006 mB)
Relative humidity89 %
Density altitude2,051 ft. (625 m)
Flight conditions Marginal Visual Meteorological Conditions
Raw dataRJFF 160630Z 18010KT 8000 R16/2000N TSRA FEW008 FEW020CB SCT030 BKN040 27/25 Q1006 TEMPO 3000 TSRA BR
An error has occurred. This application may no longer respond until reloaded. Reload 🗙